LFSM 261500Z AUTO 33005KT 250V050 9999 OVC045 17/13 Q1015

ElémentsDécodage
LFSM Station météo située sur l'aérodrome de MONTBELIARD Courcelles
261500Z émis le 26 du mois à 15h00 UTC
AUTO Bulletin édité par un automate
33005KT vent du 330°, 05 noeuds
250V050 vent de direction variable entre 250° et 050°
9999 visibilité horizontale supérieure à 10 Km
OVC045 couverture nuageuse totale (8/8) à 4500 pieds
17/13 température 17°C, point de rosée 13°C
 soit une humidité relative de 77%
Q1015 la pression au niveau de la mer (QNH) est de 1015 hPa